Hilton Head Island, South Carolina
Current Conditions -  °F | °C
As of 8:32 AM on Saturday 20 Dec 2014 (Local Time) from KHXD Reporting Station
Light Rain Light Rain  
Wind Chill: 52°   Ceiling: 4600
Heat Index: 52°   Visibility: 4mi
Dew Point: 50°   Wind: 6mph
Humidity: 94%   Direction: 10°N
Pressure: 30.18"   Gusts: NA
Location:  32.15°N, 80.76°W
Report Text: KHXD 201332Z 01005KT 4SM -RA FEW021 BKN046 11/10 A3018
Loading
Personal Weather Stations






























Interactive Weather Map New forecast layout! Learn more

10-Day Weather Forecast

Advertisements
Track Severe Weather on mobile